Eugene, OR (97404)

11:10 PM PDT on August 28, 2015 (GMT -0700)
Santa Clara | | Change Station
CLOSE
Current Station
Personal Weather Station
Location: Eugene, OR
Elevation: 406 ft
Nearby Weather Stations
Active Advisory: Wind Advisory

Elev 406 ft 44.11 °N, 123.15 °W | Updated 6 seconds ago

Overcast
Overcast
68.2 °F
Feels Like 68.2 °F
N
1.0
Wind Variable Wind from NW
Gusts 4.0 mph

Today
High -- | Low -- °F
--% Chance of Precip.
Yesterday
High -- | Low -- °F
Precip. -- in
6:30 AM 7:55 PM
Full, 100% visible
Pressure 29.67 in
Visibility 10.0 miles
Clouds Overcast 18000 ft
Dew Point 61 °F
Humidity 77%
Rainfall 0.00 in
Snow Depth Not available.
UV 0 out of 12
Pollen 2.60 out of 12
Air Quality Not available.
Flu Activity Not available.
METAR KEUG 290554Z 31004KT 10SM OVC180 22/14 A2967 RMK AO2 SLP045 T02170139 10278 20217 58018
Pressure 29.67 in
Visibility 10.0 miles
Clouds Overcast 18000 ft
Dew Point 61 °F
Humidity 77%
Rainfall 0.00 in
Snow Depth Not available.
UV 0 out of 12
Pollen 2.60 out of 12
Air Quality Not available.
Flu Activity Not available.
METAR KEUG 290554Z 31004KT 10SM OVC180 22/14 A2967 RMK AO2 SLP045 T02170139 10278 20217 58018

10-Day Weather Forecast

×

Almanac

Astronomy

Aug. 28, 2015 Rise Set
Actual Time
Civil Twilight
Nautical Twilight
Astronomical Twilight
Moon
Length of Visible Light
Length of Day
Tomorrow will be .
, % of the Moon is Illuminated

Today's Extremes

State Highs State Lows

Community

WunderPhotos

Upload Photos

1,850,622 photos uploaded!

WunderBlogs® & News

Nearby

Air Quality

  Air Quality AQ Index Pollutant
Not available.

Snow Depth

Station Depth Elevation

Earthquake Activity

City Distance Mag. Time & Date
Minimum magnitude displayed is 2.5.

Coastal Water Temperatures

Place Temperature

Stations

Nearby Weather Stations

Station Location Temp. Windchill Dew Point Humidity Wind Precip. Elev Updated Type
                   
Wind Advisory
Statement as of 9:13 PM PDT on August 28, 2015

... Wind Advisory remains in effect from 6 am to noon PDT
Saturday for the southern and central Willamette Valley...

A Wind Advisory remains in effect from 6 am to noon PDT Saturday.



* Winds: south winds 15 to 25 mph with gusts 35 to 45 mph.

* Timing: 6 am to noon Saturday.

* Locations include: Eugene... Springfield... Corvallis...
Albany... Salem... McMinnville.

* Impacts: with a full set of leaves on trees... these winds
could cause tree damage and local power disruptions. These
winds could cause problems for outdoor events... especially
those with temporary outdoor facilities such as tents and
canopies.




Precautionary/preparedness actions...

A Wind Advisory is issued when winds may cause minor property
damage without extra precautions. Motorists in high profile
vehicles should use caution until the winds subside.